createdAt,value
2023-03-11T00:00:47.306Z,0.80
2023-03-11T00:03:17.326Z,0.79
2023-03-11T00:05:46.229Z,0.60
2023-03-11T00:08:18.344Z,0.67
2023-03-11T00:10:47.659Z,0.66
2023-03-11T00:13:16.846Z,0.63
2023-03-11T00:15:48.345Z,0.72
2023-03-11T00:18:15.720Z,0.66
2023-03-11T00:20:45.656Z,0.53
2023-03-11T00:23:14.056Z,0.56
2023-03-11T00:25:43.791Z,0.55
2023-03-11T00:28:13.088Z,0.61
2023-03-11T00:30:42.122Z,0.63
2023-03-11T00:33:12.034Z,0.74
2023-03-11T00:35:38.657Z,0.88
2023-03-11T00:38:11.698Z,0.81
2023-03-11T00:40:40.217Z,0.79
2023-03-11T00:43:06.736Z,0.89
2023-03-11T00:45:33.788Z,0.92
2023-03-11T00:48:00.902Z,0.88
2023-03-11T00:50:32.504Z,0.80
2023-03-11T00:53:00.044Z,0.60
2023-03-11T00:55:32.979Z,0.47
2023-03-11T00:58:05.043Z,0.49
2023-03-11T01:00:33.952Z,0.71
2023-03-11T01:03:00.815Z,0.72
2023-03-11T01:05:32.092Z,0.62
2023-03-11T01:08:00.245Z,0.67
2023-03-11T01:10:28.763Z,0.80
2023-03-11T01:12:55.865Z,0.72
2023-03-11T01:15:30.904Z,0.80
2023-03-11T01:17:57.512Z,0.71
2023-03-11T01:20:24.561Z,0.71
2023-03-11T01:22:51.418Z,0.84
2023-03-11T01:25:22.294Z,0.84
2023-03-11T01:27:48.916Z,0.80
2023-03-11T01:30:20.601Z,0.91
2023-03-11T01:32:47.197Z,0.84
2023-03-11T01:35:18.157Z,0.76
2023-03-11T01:37:46.082Z,0.81
2023-03-11T01:40:26.058Z,0.56
2023-03-11T01:42:52.976Z,0.58
2023-03-11T01:45:47.571Z,0.40
2023-03-11T01:48:14.061Z,0.50
2023-03-11T01:50:49.711Z,0.49
2023-03-11T01:53:17.688Z,0.60
2023-03-11T01:55:46.685Z,0.61
2023-03-11T01:58:20.617Z,0.45
2023-03-11T02:00:47.443Z,0.56
2023-03-11T02:03:36.296Z,0.40
2023-03-11T02:06:10.700Z,0.46
2023-03-11T02:08:38.244Z,0.61
2023-03-11T02:11:09.647Z,0.63
2023-03-11T02:13:39.223Z,0.49
2023-03-11T02:16:06.478Z,0.58
2023-03-11T02:18:33.872Z,0.56
2023-03-11T02:21:34.490Z,0.61
2023-03-11T02:24:35.540Z,0.50
2023-03-11T02:27:11.980Z,0.53
2023-03-11T02:29:40.118Z,0.47
2023-03-11T02:32:10.185Z,0.49
2023-03-11T02:34:39.565Z,0.77
2023-03-11T02:37:10.484Z,0.55
2023-03-11T02:39:44.923Z,0.58
2023-03-11T02:42:25.072Z,0.57
2023-03-11T02:45:16.517Z,0.52
2023-03-11T02:47:43.069Z,0.51
2023-03-11T02:50:13.857Z,0.49
2023-03-11T02:52:40.407Z,0.58
2023-03-11T02:55:08.787Z,0.52
2023-03-11T02:57:35.283Z,0.69
2023-03-11T03:00:08.597Z,0.71
2023-03-11T03:02:35.037Z,0.49
2023-03-11T03:05:01.529Z,0.58
2023-03-11T03:07:28.083Z,0.49
2023-03-11T03:09:54.840Z,0.24
2023-03-11T03:12:21.335Z,0.29
2023-03-11T03:14:47.858Z,0.43
2023-03-11T03:17:14.500Z,0.63
2023-03-11T03:19:41.088Z,0.69
2023-03-11T03:22:07.717Z,0.68
2023-03-11T03:24:34.263Z,0.72
2023-03-11T03:27:00.794Z,0.70
2023-03-11T03:29:27.244Z,0.51
2023-03-11T03:31:53.812Z,0.57
2023-03-11T03:34:20.472Z,0.52
2023-03-11T03:36:46.962Z,0.60
2023-03-11T03:39:13.436Z,0.56
2023-03-11T03:41:39.939Z,0.62
2023-03-11T03:44:06.414Z,0.76
2023-03-11T03:46:32.884Z,0.85
2023-03-11T03:48:59.400Z,0.99
2023-03-11T03:51:25.913Z,1.08
2023-03-11T03:53:52.421Z,1.06
2023-03-11T03:56:19.178Z,0.98
2023-03-11T03:58:45.744Z,0.32
2023-03-11T04:01:13.062Z,0.38
2023-03-11T04:03:39.943Z,0.50
2023-03-11T04:06:15.826Z,0.67
2023-03-11T04:08:42.812Z,0.65
2023-03-11T04:11:09.285Z,0.64
2023-03-11T04:13:35.918Z,0.61
2023-03-11T04:16:07.584Z,0.62
2023-03-11T04:18:34.761Z,0.71
2023-03-11T04:21:06.387Z,0.64
2023-03-11T04:23:34.337Z,0.73
2023-03-11T04:26:01.583Z,0.90
2023-03-11T04:28:28.129Z,0.96
2023-03-11T04:30:54.636Z,0.83
2023-03-11T04:33:21.110Z,0.73
2023-03-11T04:35:47.635Z,0.68
2023-03-11T04:38:14.131Z,0.64
2023-03-11T04:40:40.736Z,0.65
2023-03-11T04:43:07.267Z,0.69
2023-03-11T04:45:33.887Z,0.46
2023-03-11T04:48:00.308Z,0.40
2023-03-11T04:50:26.832Z,0.30
2023-03-11T04:52:53.299Z,0.21
2023-03-11T04:55:19.740Z,0.19
2023-03-11T04:57:46.206Z,0.11
2023-03-11T05:00:16.116Z,0.07
2023-03-11T05:02:43.060Z,-0.02
2023-03-11T05:05:10.392Z,-0.20
2023-03-11T05:07:37.851Z,-0.41
2023-03-11T05:10:05.706Z,-0.30
2023-03-11T05:12:32.680Z,-0.20
2023-03-11T05:14:59.186Z,-0.21
2023-03-11T05:17:25.668Z,-0.24
2023-03-11T05:19:57.450Z,-0.15
2023-03-11T05:22:24.160Z,-0.30
2023-03-11T05:24:51.684Z,-0.10
2023-03-11T05:27:18.189Z,-0.02
2023-03-11T05:29:45.094Z,-0.06
2023-03-11T05:32:13.200Z,-0.17
2023-03-11T05:34:40.375Z,-0.13
2023-03-11T05:37:07.613Z,-0.03
2023-03-11T05:39:34.760Z,-0.02
2023-03-11T05:42:01.311Z,0.06
2023-03-11T05:44:27.936Z,0.06
2023-03-11T05:46:54.541Z,0.14
2023-03-11T05:49:21.605Z,0.18
2023-03-11T05:51:50.048Z,0.21
2023-03-11T05:54:17.631Z,-0.01
2023-03-11T05:56:45.840Z,0.05
2023-03-11T05:59:16.608Z,0.02
2023-03-11T06:01:44.749Z,0.13
2023-03-11T06:04:11.801Z,0.30
2023-03-11T06:06:41.142Z,0.32
2023-03-11T06:09:12.864Z,0.26
2023-03-11T06:11:39.399Z,0.14
2023-03-11T06:14:06.237Z,0.27
2023-03-11T06:16:32.916Z,0.10
2023-03-11T06:19:02.460Z,0.15
2023-03-11T06:21:28.951Z,0.37
2023-03-11T06:23:55.551Z,0.49
2023-03-11T06:26:23.950Z,0.43
2023-03-11T06:28:52.505Z,0.47
2023-03-11T06:31:29.904Z,0.50
2023-03-11T06:33:56.996Z,0.33
2023-03-11T06:36:25.585Z,0.26
2023-03-11T06:38:53.960Z,0.19
2023-03-11T06:41:20.864Z,0.16
2023-03-11T06:43:47.345Z,0.08
2023-03-11T06:46:19.923Z,0.10
2023-03-11T06:48:47.870Z,0.19
2023-03-11T06:51:14.648Z,0.06
2023-03-11T06:53:41.448Z,0.07
2023-03-11T06:56:11.890Z,0.31
2023-03-11T06:58:41.935Z,0.31
2023-03-11T07:01:14.763Z,0.32
2023-03-11T07:03:42.343Z,0.36
2023-03-11T07:06:35.136Z,0.19
2023-03-11T07:09:01.598Z,0.16
2023-03-11T07:11:28.868Z,0.14
2023-03-11T07:13:55.981Z,0.22
2023-03-11T07:16:26.775Z,0.15
2023-03-11T07:18:58.975Z,0.13
2023-03-11T07:21:25.556Z,0.25
2023-03-11T07:23:58.536Z,0.24
2023-03-11T07:26:26.724Z,0.25
2023-03-11T07:28:55.975Z,0.12
2023-03-11T07:31:26.561Z,0.09
2023-03-11T07:33:53.851Z,0.10
2023-03-11T07:36:24.687Z,0.07
2023-03-11T07:39:05.959Z,0.07
2023-03-11T07:41:35.255Z,0.09
2023-03-11T07:44:03.442Z,0.11
2023-03-11T07:46:30.917Z,0.21
2023-03-11T07:48:57.487Z,0.27
2023-03-11T07:51:27.860Z,0.22
2023-03-11T07:53:56.923Z,0.23
2023-03-11T07:56:25.884Z,0.30
2023-03-11T07:58:53.082Z,0.48
2023-03-11T08:01:23.763Z,0.48
2023-03-11T08:03:57.039Z,0.77
2023-03-11T08:06:31.273Z,0.80
2023-03-11T08:08:59.807Z,0.86
2023-03-11T08:11:27.229Z,0.79
2023-03-11T08:13:54.055Z,0.87
2023-03-11T08:16:22.552Z,0.84
2023-03-11T08:18:51.201Z,0.88
2023-03-11T08:21:22.536Z,0.90
2023-03-11T08:23:50.755Z,0.92
2023-03-11T08:26:21.994Z,0.88
2023-03-11T08:28:50.055Z,0.83
2023-03-11T08:31:20.110Z,0.84
2023-03-11T08:33:51.908Z,0.63
2023-03-11T08:36:20.689Z,0.46
2023-03-11T08:38:47.658Z,0.35
2023-03-11T08:41:15.147Z,0.26
2023-03-11T08:43:42.819Z,0.34
2023-03-11T08:46:21.081Z,0.26
2023-03-11T08:48:47.697Z,0.33
2023-03-11T08:51:14.775Z,0.36
2023-03-11T08:53:41.690Z,0.29
2023-03-11T08:56:11.230Z,0.30
2023-03-11T08:58:37.916Z,0.36
2023-03-11T09:01:06.138Z,0.46
2023-03-11T09:03:35.582Z,0.68
2023-03-11T09:06:07.481Z,0.52
2023-03-11T09:08:34.388Z,0.59
2023-03-11T09:11:01.125Z,0.58
2023-03-11T09:13:27.906Z,0.65
2023-03-11T09:15:54.539Z,0.60
2023-03-11T09:18:21.356Z,0.55
2023-03-11T09:20:48.533Z,0.47
2023-03-11T09:23:17.212Z,0.49
2023-03-11T09:25:44.782Z,0.66
2023-03-11T09:28:11.337Z,1.15
2023-03-11T09:30:37.855Z,1.07
2023-03-11T09:33:04.417Z,1.12
2023-03-11T09:35:31.075Z,1.37
2023-03-11T09:37:57.520Z,1.53
2023-03-11T09:40:28.496Z,1.43
2023-03-11T09:43:25.221Z,1.32
2023-03-11T09:46:14.073Z,1.59
2023-03-11T09:48:53.172Z,1.68
2023-03-11T09:51:29.356Z,1.82
2023-03-11T09:54:05.174Z,1.85
2023-03-11T09:56:37.023Z,1.90
2023-03-11T09:59:31.023Z,2.06
2023-03-11T10:01:59.235Z,2.05
2023-03-11T10:05:09.614Z,2.16
2023-03-11T10:07:41.988Z,2.06
2023-03-11T10:10:14.631Z,2.02
2023-03-11T10:13:18.594Z,1.88
2023-03-11T10:16:31.877Z,1.92
2023-03-11T10:19:17.162Z,1.96
2023-03-11T10:22:37.477Z,1.95
2023-03-11T10:25:25.693Z,2.28
2023-03-11T10:28:02.474Z,2.59
2023-03-11T10:30:44.967Z,2.84
2023-03-11T10:33:26.324Z,2.96
2023-03-11T10:36:00.294Z,3.28
2023-03-11T10:38:35.132Z,2.96
2023-03-11T10:41:12.236Z,3.19
2023-03-11T10:43:51.877Z,3.29
2023-03-11T10:46:25.158Z,3.52
2023-03-11T10:48:51.651Z,3.46
2023-03-11T10:51:23.089Z,3.62
2023-03-11T10:54:02.221Z,3.31
2023-03-11T10:56:40.991Z,3.23
2023-03-11T10:59:48.484Z,3.35
2023-03-11T11:02:53.088Z,3.58
2023-03-11T11:05:22.239Z,3.61
2023-03-11T11:08:13.629Z,3.72
2023-03-11T11:10:55.368Z,3.83
2023-03-11T11:13:30.280Z,3.76
2023-03-11T11:16:16.712Z,3.91
2023-03-11T11:19:00.200Z,3.90
2023-03-11T11:21:37.220Z,3.87
2023-03-11T11:24:17.390Z,3.84
2023-03-11T11:27:32.826Z,3.71
2023-03-11T11:30:16.696Z,3.71
2023-03-11T11:32:43.999Z,3.88
2023-03-11T11:35:16.630Z,3.81
2023-03-11T11:37:49.891Z,3.86
2023-03-11T11:40:16.600Z,4.15
2023-03-11T11:42:59.444Z,4.11
2023-03-11T11:45:36.856Z,4.08
2023-03-11T11:48:22.528Z,4.16
2023-03-11T11:50:55.669Z,4.28
2023-03-11T11:53:42.090Z,4.10
2023-03-11T11:56:08.710Z,3.96
2023-03-11T11:58:36.014Z,4.04
2023-03-11T12:01:47.414Z,3.86
2023-03-11T12:04:36.823Z,3.96
2023-03-11T12:07:50.517Z,4.13
2023-03-11T12:10:45.023Z,4.39
2023-03-11T12:14:04.230Z,4.57
2023-03-11T12:17:04.205Z,4.40
2023-03-11T12:20:07.159Z,4.58
2023-03-11T12:23:09.416Z,4.60
2023-03-11T12:26:20.071Z,4.48
2023-03-11T12:29:00.279Z,4.52
2023-03-11T12:31:35.138Z,4.51
2023-03-11T12:34:05.289Z,4.26
2023-03-11T12:36:36.396Z,4.13
2023-03-11T12:39:07.546Z,4.06
2023-03-11T12:41:43.936Z,4.21
2023-03-11T12:44:31.530Z,4.39
2023-03-11T12:46:57.982Z,4.58
2023-03-11T12:49:36.997Z,4.47
2023-03-11T12:52:12.327Z,4.24
2023-03-11T12:54:40.770Z,4.11
2023-03-11T12:57:16.298Z,4.20
2023-03-11T13:00:23.388Z,4.28
2023-03-11T13:03:48.003Z,3.92
2023-03-11T13:06:41.625Z,4.01
2023-03-11T13:09:16.117Z,4.23
2023-03-11T13:11:47.061Z,4.05
2023-03-11T13:14:30.971Z,4.03
2023-03-11T13:17:27.028Z,4.16
2023-03-11T13:19:56.452Z,4.32
2023-03-11T13:22:44.737Z,4.33
2023-03-11T13:26:09.376Z,4.52
2023-03-11T13:29:29.978Z,4.55
2023-03-11T13:32:19.621Z,4.53
2023-03-11T13:35:43.208Z,4.73
2023-03-11T13:38:48.333Z,4.76
2023-03-11T13:41:24.613Z,4.49
2023-03-11T13:43:52.581Z,4.68
2023-03-11T13:46:35.577Z,4.71
2023-03-11T13:49:19.369Z,4.68
2023-03-11T13:51:49.142Z,4.67
2023-03-11T13:54:20.128Z,4.59
2023-03-11T13:56:54.885Z,4.49
2023-03-11T13:59:34.980Z,4.41
2023-03-11T14:02:17.236Z,4.32
2023-03-11T14:04:52.775Z,4.19
2023-03-11T14:07:35.365Z,4.26
2023-03-11T14:10:28.000Z,3.95
2023-03-11T14:13:17.237Z,4.00
2023-03-11T14:16:02.049Z,4.12
2023-03-11T14:18:40.286Z,4.29
2023-03-11T14:21:20.810Z,4.17
2023-03-11T14:23:54.414Z,4.24
2023-03-11T14:26:26.108Z,4.23
2023-03-11T14:28:57.050Z,4.26
2023-03-11T14:31:25.500Z,4.23
2023-03-11T14:34:16.806Z,4.10
2023-03-11T14:36:52.262Z,4.31
2023-03-11T14:39:32.808Z,4.24
2023-03-11T14:42:08.393Z,4.01
2023-03-11T14:44:41.776Z,4.25
2023-03-11T14:47:36.180Z,4.29
2023-03-11T14:50:09.903Z,4.35
2023-03-11T14:52:52.171Z,4.28
2023-03-11T14:55:44.520Z,4.38
2023-03-11T14:58:29.064Z,4.31
2023-03-11T15:01:05.509Z,4.33
2023-03-11T15:03:38.217Z,4.47
2023-03-11T15:06:16.665Z,4.35
2023-03-11T15:08:50.005Z,4.33
2023-03-11T15:11:16.454Z,4.58
2023-03-11T15:13:47.326Z,4.60
2023-03-11T15:16:36.320Z,4.56
2023-03-11T15:19:33.133Z,4.44
2023-03-11T15:22:24.185Z,4.61
2023-03-11T15:24:57.173Z,4.60
2023-03-11T15:27:37.533Z,4.67
2023-03-11T15:30:31.362Z,4.61
2023-03-11T15:32:58.833Z,4.61
2023-03-11T15:35:31.071Z,4.55
2023-03-11T15:38:21.541Z,4.39
2023-03-11T15:41:01.314Z,4.35
2023-03-11T15:43:43.126Z,4.35
2023-03-11T15:46:11.279Z,4.28
2023-03-11T15:48:37.830Z,4.32
2023-03-11T15:51:04.598Z,4.15
2023-03-11T15:53:31.519Z,4.23
2023-03-11T15:56:12.377Z,4.10
2023-03-11T15:58:39.118Z,3.99
2023-03-11T16:01:06.002Z,3.93
2023-03-11T16:03:32.582Z,3.95
2023-03-11T16:05:59.060Z,3.90
2023-03-11T16:08:25.577Z,3.97
2023-03-11T16:10:52.103Z,3.85
2023-03-11T16:13:18.690Z,3.86
2023-03-11T16:15:46.843Z,3.77
2023-03-11T16:18:13.469Z,3.83
2023-03-11T16:20:47.877Z,3.80
2023-03-11T16:23:25.630Z,3.81
2023-03-11T16:25:58.460Z,3.93
2023-03-11T16:28:25.199Z,3.86
2023-03-11T16:30:52.085Z,3.67
2023-03-11T16:33:18.849Z,3.44
2023-03-11T16:35:46.040Z,3.49
2023-03-11T16:38:13.090Z,3.55
2023-03-11T16:40:39.833Z,3.53
2023-03-11T16:43:13.610Z,3.44
2023-03-11T16:45:40.252Z,3.41
2023-03-11T16:48:07.139Z,3.37
2023-03-11T16:50:35.020Z,3.38
2023-03-11T16:53:02.819Z,3.28
2023-03-11T16:55:30.239Z,3.10
2023-03-11T16:58:00.222Z,3.05
2023-03-11T17:00:26.909Z,2.92
2023-03-11T17:02:53.638Z,2.76
2023-03-11T17:05:20.444Z,2.70
2023-03-11T17:07:47.828Z,2.76
2023-03-11T17:10:14.524Z,2.82
2023-03-11T17:12:41.049Z,2.78
2023-03-11T17:15:08.426Z,2.62
2023-03-11T17:17:35.252Z,2.62
2023-03-11T17:20:02.046Z,2.61
2023-03-11T17:22:28.568Z,2.59
2023-03-11T17:24:55.072Z,2.59
2023-03-11T17:27:21.559Z,2.59
2023-03-11T17:29:48.041Z,2.54
2023-03-11T17:32:17.461Z,2.32
2023-03-11T17:34:44.452Z,2.11
2023-03-11T17:37:10.951Z,2.12
2023-03-11T17:39:37.511Z,2.14
2023-03-11T17:42:04.119Z,1.87
2023-03-11T17:44:44.560Z,1.73
2023-03-11T17:47:19.414Z,1.44
2023-03-11T17:49:45.906Z,1.32
2023-03-11T17:52:12.931Z,1.27
2023-03-11T17:54:39.654Z,1.34
2023-03-11T17:57:06.303Z,1.23
2023-03-11T17:59:32.752Z,1.19
2023-03-11T18:01:59.285Z,1.05
2023-03-11T18:04:25.968Z,1.08
2023-03-11T18:06:54.877Z,0.99
2023-03-11T18:09:21.735Z,0.97
2023-03-11T18:11:48.619Z,0.76
2023-03-11T18:14:15.104Z,0.67
2023-03-11T18:16:41.911Z,0.77
2023-03-11T18:19:08.386Z,0.84
2023-03-11T18:21:34.835Z,0.68
2023-03-11T18:24:01.506Z,0.57
2023-03-11T18:26:29.953Z,0.62
2023-03-11T18:28:59.578Z,0.71
2023-03-11T18:31:28.591Z,0.77
2023-03-11T18:33:59.520Z,0.57
2023-03-11T18:36:30.516Z,0.37
2023-03-11T18:38:59.804Z,0.28
2023-03-11T18:41:30.845Z,0.35
2023-03-11T18:43:58.436Z,0.47
2023-03-11T18:46:28.469Z,0.25
2023-03-11T18:48:57.573Z,0.07
2023-03-11T18:51:25.768Z,-0.02
2023-03-11T18:53:52.316Z,-0.06
2023-03-11T18:56:19.073Z,-0.15
2023-03-11T18:58:46.297Z,-0.17
2023-03-11T19:01:16.991Z,-0.10
2023-03-11T19:03:48.708Z,0.01
2023-03-11T19:06:16.478Z,0.12
2023-03-11T19:08:43.733Z,0.01
2023-03-11T19:11:18.455Z,-0.06
2023-03-11T19:13:47.702Z,0.04
2023-03-11T19:16:19.322Z,0.06
2023-03-11T19:18:46.602Z,0.13
2023-03-11T19:21:15.399Z,0.07
2023-03-11T19:23:42.488Z,-0.17
2023-03-11T19:26:09.035Z,-0.25
2023-03-11T19:28:36.020Z,-0.22
2023-03-11T19:31:03.587Z,-0.19
2023-03-11T19:33:30.645Z,-0.34
2023-03-11T19:36:04.923Z,-0.49
2023-03-11T19:38:31.648Z,-0.47
2023-03-11T19:41:07.372Z,-0.77
2023-03-11T19:43:35.679Z,-0.85
2023-03-11T19:46:05.043Z,-0.72
2023-03-11T19:48:32.677Z,-0.65
2023-03-11T19:50:59.852Z,-0.57
2023-03-11T19:53:26.951Z,-0.66
2023-03-11T19:55:56.572Z,-0.60
2023-03-11T19:58:29.478Z,-0.52
2023-03-11T20:00:58.502Z,-0.65
2023-03-11T20:03:25.542Z,-0.76
2023-03-11T20:05:56.439Z,-0.82
2023-03-11T20:08:25.498Z,-1.00
2023-03-11T20:10:53.894Z,-0.99
2023-03-11T20:13:21.756Z,-0.91
2023-03-11T20:15:49.607Z,-0.85
2023-03-11T20:18:16.716Z,-0.98
2023-03-11T20:20:44.404Z,-1.07
2023-03-11T20:23:11.989Z,-1.18
2023-03-11T20:25:40.919Z,-1.32
2023-03-11T20:28:08.666Z,-1.21
2023-03-11T20:30:38.478Z,-1.15
2023-03-11T20:33:05.866Z,-1.12
2023-03-11T20:35:32.680Z,-1.05
2023-03-11T20:37:59.873Z,-0.96
2023-03-11T20:40:26.644Z,-1.06
2023-03-11T20:42:53.242Z,-1.14
2023-03-11T20:45:21.756Z,-1.09
2023-03-11T20:47:50.528Z,-1.25
2023-03-11T20:50:17.372Z,-1.18
2023-03-11T20:52:43.927Z,-1.07
2023-03-11T20:55:11.941Z,-0.95
2023-03-11T20:57:40.018Z,-0.97
2023-03-11T21:00:11.980Z,-1.19
2023-03-11T21:02:40.894Z,-1.30
2023-03-11T21:05:09.850Z,-1.44
2023-03-11T21:07:36.515Z,-1.50
2023-03-11T21:10:07.946Z,-1.35
2023-03-11T21:12:34.644Z,-1.20
2023-03-11T21:15:01.245Z,-1.32
2023-03-11T21:17:27.698Z,-1.27
2023-03-11T21:19:54.238Z,-1.23
2023-03-11T21:22:23.145Z,-1.40
2023-03-11T21:24:54.632Z,-1.29
2023-03-11T21:27:26.410Z,-1.22
2023-03-11T21:29:57.980Z,-1.35
2023-03-11T21:32:27.637Z,-1.36
2023-03-11T21:34:59.846Z,-1.36
2023-03-11T21:37:28.317Z,-1.43
2023-03-11T21:39:55.102Z,-1.46
2023-03-11T21:42:21.943Z,-1.37
2023-03-11T21:44:48.561Z,-1.25
2023-03-11T21:47:15.181Z,-1.15
2023-03-11T21:49:41.671Z,-1.15
2023-03-11T21:52:08.152Z,-1.21
2023-03-11T21:54:34.654Z,-1.37
2023-03-11T21:57:01.276Z,-1.42
2023-03-11T21:59:27.977Z,-1.56
2023-03-11T22:01:54.697Z,-1.62
2023-03-11T22:04:21.458Z,-1.80
2023-03-11T22:06:48.175Z,-1.68
2023-03-11T22:09:14.611Z,-1.57
2023-03-11T22:11:41.284Z,-1.68
2023-03-11T22:14:07.816Z,-1.83
2023-03-11T22:16:34.509Z,-1.93
2023-03-11T22:19:01.208Z,-1.89
2023-03-11T22:21:27.753Z,-1.90
2023-03-11T22:23:54.294Z,-1.79
2023-03-11T22:26:20.821Z,-1.69
2023-03-11T22:28:47.389Z,-1.80
2023-03-11T22:31:15.504Z,-1.93
2023-03-11T22:33:42.129Z,-1.91
2023-03-11T22:36:09.271Z,-1.78
2023-03-11T22:38:36.851Z,-1.71
2023-03-11T22:41:08.073Z,-1.72
2023-03-11T22:43:36.095Z,-1.83
2023-03-11T22:46:04.729Z,-1.96
2023-03-11T22:48:33.679Z,-1.97
2023-03-11T22:51:00.211Z,-1.90
2023-03-11T22:53:26.918Z,-1.75
2023-03-11T22:55:53.553Z,-1.66
2023-03-11T22:58:20.453Z,-1.67
2023-03-11T23:00:47.605Z,-1.74
2023-03-11T23:03:14.538Z,-1.77
2023-03-11T23:05:42.251Z,-1.75
2023-03-11T23:08:12.750Z,-1.66
2023-03-11T23:10:44.515Z,-1.58
2023-03-11T23:13:11.661Z,-1.64
2023-03-11T23:15:41.945Z,-1.62
2023-03-11T23:18:09.743Z,-1.48
2023-03-11T23:20:42.341Z,-1.43
2023-03-11T23:23:10.169Z,-1.44
2023-03-11T23:25:37.900Z,-1.38
2023-03-11T23:28:05.923Z,-1.50
2023-03-11T23:30:33.227Z,-1.48
2023-03-11T23:33:02.699Z,-1.43
2023-03-11T23:35:29.512Z,-1.44
2023-03-11T23:37:55.984Z,-1.50
2023-03-11T23:40:22.465Z,-1.44
2023-03-11T23:42:50.522Z,-1.25
2023-03-11T23:45:17.240Z,-1.05
2023-03-11T23:47:43.712Z,-0.90
2023-03-11T23:50:10.719Z,-0.86
2023-03-11T23:52:37.315Z,-0.85
2023-03-11T23:55:04.439Z,-0.83
2023-03-11T23:57:30.986Z,-0.80
2023-03-11T23:59:57.666Z,-0.79
